createdAt,value
2022-11-14T00:01:31.558Z,9.07
2022-11-14T00:07:27.879Z,8.88
2022-11-14T00:10:22.622Z,8.68
2022-11-14T00:13:18.488Z,8.83
2022-11-14T00:16:19.168Z,8.75
2022-11-14T00:19:06.615Z,8.94
2022-11-14T00:21:54.959Z,8.95
2022-11-14T00:24:58.266Z,8.99
2022-11-14T00:27:47.893Z,9.10
2022-11-14T00:30:35.393Z,8.96
2022-11-14T00:33:22.298Z,9.05
2022-11-14T00:36:19.119Z,9.02
2022-11-14T00:39:14.561Z,8.89
2022-11-14T00:42:09.755Z,8.74
2022-11-14T00:45:00.862Z,8.75
2022-11-14T00:47:56.736Z,8.83
2022-11-14T00:50:49.447Z,8.65
2022-11-14T00:53:39.651Z,8.73
2022-11-14T00:56:35.781Z,8.75
2022-11-14T00:59:25.613Z,8.79
2022-11-14T01:02:15.217Z,8.67
2022-11-14T01:05:03.096Z,8.89
2022-11-14T01:07:50.635Z,8.82
2022-11-14T01:10:42.209Z,8.94
2022-11-14T01:13:33.308Z,8.94
2022-11-14T01:16:23.627Z,8.85
2022-11-14T01:19:19.644Z,8.77
2022-11-14T01:22:14.869Z,8.67
2022-11-14T01:25:11.617Z,8.74
2022-11-14T01:28:01.373Z,8.83
2022-11-14T01:30:52.584Z,8.80
2022-11-14T01:33:46.662Z,8.85
2022-11-14T01:39:40.679Z,8.87
2022-11-14T01:42:29.856Z,8.72
2022-11-14T01:46:02.095Z,8.87
2022-11-14T01:55:51.999Z,8.76
2022-11-14T01:58:53.128Z,8.83
2022-11-14T02:01:53.727Z,8.65
2022-11-14T02:04:47.273Z,8.57
2022-11-14T02:07:48.609Z,8.76
2022-11-14T02:10:35.227Z,8.62
2022-11-14T02:13:27.302Z,8.64
2022-11-14T02:16:14.200Z,8.60
2022-11-14T02:19:03.992Z,8.51
2022-11-14T02:21:50.349Z,8.58
2022-11-14T02:24:42.467Z,8.68
2022-11-14T02:27:33.280Z,8.71
2022-11-14T02:30:32.390Z,8.65
2022-11-14T02:33:21.133Z,8.71
2022-11-14T02:36:20.741Z,8.68
2022-11-14T02:39:12.628Z,8.75
2022-11-14T02:42:01.372Z,8.67
2022-11-14T02:44:48.293Z,8.71
2022-11-14T02:47:37.938Z,8.79
2022-11-14T02:50:27.145Z,8.85
2022-11-14T02:53:16.919Z,8.87
2022-11-14T02:56:03.044Z,8.85
2022-11-14T02:58:52.279Z,8.70
2022-11-14T03:01:40.565Z,8.60
2022-11-14T03:04:37.464Z,8.63
2022-11-14T03:07:30.208Z,8.73
2022-11-14T03:10:20.320Z,8.49
2022-11-14T03:13:24.449Z,8.30
2022-11-14T03:16:18.669Z,8.28
2022-11-14T03:19:14.978Z,8.50
2022-11-14T03:22:07.042Z,8.70
2022-11-14T03:24:56.602Z,8.85
2022-11-14T03:27:46.070Z,8.69
2022-11-14T03:30:35.176Z,8.68
2022-11-14T03:33:25.550Z,8.70
2022-11-14T03:36:16.459Z,8.79
2022-11-14T03:39:14.920Z,8.83
2022-11-14T03:42:04.344Z,8.77
2022-11-14T03:44:51.816Z,8.73
2022-11-14T03:47:40.810Z,8.72
2022-11-14T03:50:30.364Z,8.65
2022-11-14T03:53:19.874Z,8.68
2022-11-14T03:56:20.360Z,8.74
2022-11-14T03:59:10.570Z,8.48
2022-11-14T04:02:07.188Z,8.67
2022-11-14T04:05:04.623Z,8.67
2022-11-14T04:10:55.877Z,8.79
2022-11-14T04:13:48.336Z,8.83
2022-11-14T04:16:37.442Z,8.86
2022-11-14T04:19:26.757Z,8.80
2022-11-14T04:22:21.513Z,8.88
2022-11-14T04:25:13.386Z,8.72
2022-11-14T04:28:04.201Z,8.74
2022-11-14T04:33:52.344Z,8.28
2022-11-14T04:36:46.944Z,8.78
2022-11-14T04:39:36.923Z,8.81
2022-11-14T04:42:28.666Z,8.83
2022-11-14T04:45:17.670Z,8.83
2022-11-14T04:48:16.502Z,8.83
2022-11-14T04:51:05.935Z,8.75
2022-11-14T04:54:00.875Z,8.70
2022-11-14T04:57:03.233Z,8.59
2022-11-14T04:59:58.612Z,8.75
2022-11-14T05:02:45.353Z,8.79
2022-11-14T05:05:42.260Z,8.82
2022-11-14T05:08:31.321Z,8.80
2022-11-14T05:11:24.159Z,8.81
2022-11-14T05:14:24.584Z,8.90
2022-11-14T05:17:12.834Z,8.93
2022-11-14T05:20:11.170Z,8.88
2022-11-14T05:23:01.663Z,8.82
2022-11-14T05:25:58.820Z,8.77
2022-11-14T05:29:00.902Z,8.78
2022-11-14T05:31:56.887Z,8.90
2022-11-14T05:34:51.260Z,8.83
2022-11-14T05:37:42.473Z,8.59
2022-11-14T05:40:32.005Z,8.78
2022-11-14T05:43:31.461Z,8.93
2022-11-14T05:46:26.083Z,8.80
2022-11-14T05:49:22.268Z,8.78
2022-11-14T05:55:13.713Z,8.82
2022-11-14T05:58:06.124Z,8.80
2022-11-14T06:00:55.436Z,8.78
2022-11-14T06:04:04.251Z,8.83
2022-11-14T06:06:52.928Z,8.81
2022-11-14T06:12:44.089Z,8.77
2022-11-14T06:15:42.662Z,8.73
2022-11-14T06:21:48.662Z,8.80
2022-11-14T06:24:37.450Z,8.86
2022-11-14T06:27:26.709Z,8.71
2022-11-14T06:30:15.227Z,8.85
2022-11-14T06:33:12.791Z,8.81
2022-11-14T06:36:08.132Z,8.78
2022-11-14T06:39:02.693Z,8.78
2022-11-14T06:41:51.958Z,8.83
2022-11-14T06:44:49.680Z,8.99
2022-11-14T06:47:39.452Z,9.02
2022-11-14T06:50:38.081Z,8.95
2022-11-14T06:53:33.578Z,9.03
2022-11-14T06:56:21.394Z,9.10
2022-11-14T06:59:13.587Z,9.16
2022-11-14T07:02:07.992Z,9.15
2022-11-14T07:04:59.800Z,9.15
2022-11-14T07:07:47.071Z,9.23
2022-11-14T07:10:36.354Z,9.21
2022-11-14T07:13:29.237Z,9.21
2022-11-14T07:16:17.791Z,9.34
2022-11-14T07:19:12.688Z,9.29
2022-11-14T07:22:02.903Z,9.35
2022-11-14T07:24:50.782Z,9.19
2022-11-14T07:30:50.054Z,9.38
2022-11-14T07:36:42.063Z,9.29
2022-11-14T07:39:37.965Z,9.23
2022-11-14T07:42:26.820Z,9.18
2022-11-14T07:45:13.439Z,9.23
2022-11-14T07:48:15.664Z,9.27
2022-11-14T07:51:04.292Z,9.35
2022-11-14T07:53:54.307Z,9.25
2022-11-14T07:56:43.251Z,9.43
2022-11-14T07:59:35.535Z,9.28
2022-11-14T08:02:35.805Z,9.32
2022-11-14T08:05:27.472Z,9.39
2022-11-14T08:08:20.322Z,9.50
2022-11-14T08:11:31.767Z,9.51
2022-11-14T08:14:30.121Z,9.50
2022-11-14T08:17:21.922Z,9.55
2022-11-14T08:20:10.520Z,9.48
2022-11-14T08:23:15.291Z,9.40
2022-11-14T08:26:04.030Z,9.40
2022-11-14T08:28:59.921Z,9.47
2022-11-14T08:31:57.139Z,9.51
2022-11-14T08:34:54.718Z,9.52
2022-11-14T08:37:44.583Z,9.50
2022-11-14T08:40:39.457Z,9.50
2022-11-14T08:43:28.974Z,9.39
2022-11-14T08:46:18.185Z,9.48
2022-11-14T08:49:05.607Z,9.42
2022-11-14T08:51:54.119Z,9.57
2022-11-14T08:57:50.850Z,9.66
2022-11-14T09:00:40.165Z,9.74
2022-11-14T09:03:30.241Z,9.83
2022-11-14T09:06:21.871Z,9.88
2022-11-14T09:09:09.975Z,9.96
2022-11-14T09:11:58.869Z,9.87
2022-11-14T09:17:55.973Z,9.88
2022-11-14T09:20:44.404Z,10.04
2022-11-14T09:23:38.556Z,10.25
2022-11-14T09:26:26.750Z,10.24
2022-11-14T09:29:22.396Z,10.61
2022-11-14T09:32:11.806Z,10.70
2022-11-14T09:35:07.729Z,10.73
2022-11-14T09:38:15.716Z,10.56
2022-11-14T09:41:44.772Z,10.64
2022-11-14T09:45:09.635Z,10.47
2022-11-14T09:48:27.444Z,10.41
2022-11-14T09:51:29.865Z,10.48
2022-11-14T09:54:39.643Z,10.69
2022-11-14T09:57:28.410Z,10.83
2022-11-14T10:00:24.192Z,10.79
2022-11-14T10:03:32.048Z,10.92
2022-11-14T10:06:43.936Z,10.87
2022-11-14T10:09:54.973Z,10.85
2022-11-14T10:13:04.295Z,10.71
2022-11-14T10:16:22.368Z,10.80
2022-11-14T10:19:53.104Z,10.66
2022-11-14T10:23:30.929Z,10.70
2022-11-14T10:26:50.622Z,10.43
2022-11-14T10:30:00.402Z,10.57
2022-11-14T10:33:07.011Z,10.49
2022-11-14T10:36:10.468Z,10.44
2022-11-14T10:39:19.421Z,10.69
2022-11-14T10:42:18.459Z,10.51
2022-11-14T10:45:40.192Z,10.73
2022-11-14T10:48:36.453Z,10.70
2022-11-14T10:51:44.053Z,10.66
2022-11-14T10:55:05.312Z,10.67
2022-11-14T10:57:57.269Z,10.66
2022-11-14T11:00:48.131Z,10.72
2022-11-14T11:03:48.107Z,10.77
2022-11-14T11:06:42.419Z,10.78
2022-11-14T11:09:51.334Z,10.76
2022-11-14T11:12:57.921Z,10.82
2022-11-14T11:15:51.086Z,10.80
2022-11-14T11:18:42.485Z,10.82
2022-11-14T11:21:53.479Z,10.76
2022-11-14T11:27:44.730Z,10.91
2022-11-14T11:30:33.253Z,10.83
2022-11-14T11:33:58.081Z,10.83
2022-11-14T11:36:58.022Z,10.90
2022-11-14T11:39:52.170Z,10.83
2022-11-14T11:46:22.114Z,10.89
2022-11-14T11:49:28.410Z,11.00
2022-11-14T11:52:50.448Z,11.02
2022-11-14T11:55:46.005Z,10.99
2022-11-14T11:58:54.829Z,10.86
2022-11-14T12:01:47.235Z,11.01
2022-11-14T12:04:42.835Z,11.00
2022-11-14T12:07:58.147Z,10.95
2022-11-14T12:10:53.458Z,10.93
2022-11-14T12:14:34.042Z,10.87
2022-11-14T12:17:47.103Z,11.16
2022-11-14T12:21:19.301Z,11.29
2022-11-14T12:24:39.306Z,11.31
2022-11-14T12:28:13.048Z,11.23
2022-11-14T12:31:07.194Z,11.06
2022-11-14T12:34:14.508Z,11.02
2022-11-14T12:37:11.736Z,10.97
2022-11-14T12:40:11.364Z,11.01
2022-11-14T12:43:09.234Z,11.13
2022-11-14T12:46:02.342Z,10.93
2022-11-14T12:48:51.800Z,11.00
2022-11-14T12:51:56.539Z,10.91
2022-11-14T12:54:52.635Z,10.94
2022-11-14T12:58:05.535Z,10.91
2022-11-14T13:01:13.065Z,10.91
2022-11-14T13:04:40.042Z,10.90
2022-11-14T13:08:20.133Z,10.86
2022-11-14T13:12:03.106Z,10.82
2022-11-14T13:15:14.054Z,10.77
2022-11-14T13:18:44.712Z,10.72
2022-11-14T13:21:47.796Z,10.68
2022-11-14T13:25:01.670Z,10.69
2022-11-14T13:28:07.498Z,10.51
2022-11-14T13:31:22.145Z,10.56
2022-11-14T13:38:40.571Z,10.60
2022-11-14T13:42:03.099Z,10.49
2022-11-14T13:45:12.514Z,10.48
2022-11-14T13:48:41.514Z,10.31
2022-11-14T13:51:43.727Z,10.27
2022-11-14T13:54:45.091Z,10.32
2022-11-14T13:58:25.342Z,10.28
2022-11-14T14:01:33.754Z,10.27
2022-11-14T14:05:02.674Z,10.24
2022-11-14T14:08:14.979Z,10.10
2022-11-14T14:11:25.322Z,10.13
2022-11-14T14:14:48.747Z,10.17
2022-11-14T14:18:13.140Z,10.06
2022-11-14T14:21:29.709Z,10.12
2022-11-14T14:24:45.620Z,10.15
2022-11-14T14:27:47.217Z,10.05
2022-11-14T14:30:40.810Z,10.15
2022-11-14T14:33:27.468Z,10.12
2022-11-14T14:36:32.863Z,10.01
2022-11-14T14:39:26.490Z,9.93
2022-11-14T14:42:15.467Z,9.96
2022-11-14T14:45:06.997Z,9.94
2022-11-14T14:48:18.053Z,9.92
2022-11-14T14:51:08.079Z,9.96
2022-11-14T14:53:57.993Z,9.96
2022-11-14T14:57:00.294Z,10.05
2022-11-14T14:59:55.590Z,10.03
2022-11-14T15:02:54.500Z,9.92
2022-11-14T15:05:44.594Z,9.94
2022-11-14T15:08:44.236Z,9.93
2022-11-14T15:11:34.719Z,9.90
2022-11-14T15:14:31.659Z,9.91
2022-11-14T15:17:18.048Z,9.90
2022-11-14T15:20:21.324Z,9.77
2022-11-14T15:23:28.605Z,9.73
2022-11-14T15:26:22.273Z,9.78
2022-11-14T15:29:39.430Z,9.67
2022-11-14T15:32:34.553Z,9.69
2022-11-14T15:35:35.043Z,9.77
2022-11-14T15:38:47.935Z,9.71
2022-11-14T15:41:37.934Z,9.79
2022-11-14T15:44:36.276Z,9.56
2022-11-14T15:47:33.557Z,9.66
2022-11-14T15:50:39.951Z,9.67
2022-11-14T15:53:32.777Z,9.68
2022-11-14T15:56:27.875Z,9.67
2022-11-14T15:59:22.662Z,9.69
2022-11-14T16:02:33.556Z,9.69
2022-11-14T16:05:35.261Z,9.53
2022-11-14T16:08:23.889Z,9.71
2022-11-14T16:11:14.084Z,9.80
2022-11-14T16:14:16.566Z,9.69
2022-11-14T16:17:06.129Z,9.72
2022-11-14T16:19:53.042Z,9.73
2022-11-14T16:22:49.017Z,9.74
2022-11-14T16:25:35.682Z,9.68
2022-11-14T16:28:26.217Z,9.72
2022-11-14T16:31:19.566Z,9.63
2022-11-14T16:34:13.730Z,9.71
2022-11-14T16:37:03.750Z,9.63
2022-11-14T16:39:53.111Z,9.64
2022-11-14T16:42:42.693Z,9.63
2022-11-14T16:45:34.464Z,9.67
2022-11-14T16:48:21.697Z,9.65
2022-11-14T16:51:33.108Z,9.70
2022-11-14T16:54:18.214Z,9.67
2022-11-14T16:57:14.282Z,9.56
2022-11-14T17:00:10.848Z,9.67
2022-11-14T17:02:58.055Z,9.51
2022-11-14T17:05:52.348Z,9.66
2022-11-14T17:08:49.057Z,9.40
2022-11-14T17:14:45.119Z,9.64
2022-11-14T17:17:34.784Z,9.61
2022-11-14T17:20:29.446Z,9.57
2022-11-14T17:23:19.866Z,9.55
2022-11-14T17:26:10.334Z,9.56
2022-11-14T17:28:59.875Z,9.67
2022-11-14T17:31:52.389Z,9.62
2022-11-14T17:34:41.477Z,9.57
2022-11-14T17:37:28.932Z,9.56
2022-11-14T17:40:18.129Z,9.51
2022-11-14T17:43:10.592Z,9.42
2022-11-14T17:46:03.883Z,9.51
2022-11-14T17:49:00.582Z,9.56
2022-11-14T17:51:58.349Z,9.56
2022-11-14T17:54:48.368Z,9.52
2022-11-14T17:57:44.631Z,9.44
2022-11-14T18:00:33.603Z,9.41
2022-11-14T18:03:35.080Z,9.37
2022-11-14T18:06:36.636Z,9.42
2022-11-14T18:09:25.913Z,9.45
2022-11-14T18:12:15.955Z,9.48
2022-11-14T18:15:05.075Z,9.39
2022-11-14T18:17:52.875Z,9.22
2022-11-14T18:20:40.800Z,9.17
2022-11-14T18:23:35.700Z,9.20
2022-11-14T18:26:30.111Z,9.32
2022-11-14T18:29:22.827Z,9.40
2022-11-14T18:32:18.396Z,9.38
2022-11-14T18:35:13.328Z,9.41
2022-11-14T18:38:05.369Z,9.38
2022-11-14T18:40:57.520Z,9.42
2022-11-14T18:43:47.835Z,9.45
2022-11-14T18:46:41.541Z,9.46
2022-11-14T18:49:33.967Z,9.42
2022-11-14T18:52:23.780Z,9.52
2022-11-14T18:55:15.809Z,9.44
2022-11-14T18:58:03.388Z,9.52
2022-11-14T19:00:53.556Z,9.60
2022-11-14T19:06:43.748Z,9.46
2022-11-14T19:12:40.118Z,9.30
2022-11-14T19:15:35.588Z,9.43
2022-11-14T19:18:27.845Z,9.45
2022-11-14T19:21:24.151Z,9.38
2022-11-14T19:24:11.360Z,9.35
2022-11-14T19:27:03.316Z,9.41
2022-11-14T19:29:58.922Z,9.55
2022-11-14T19:32:47.765Z,9.57
2022-11-14T19:35:42.638Z,9.51
2022-11-14T19:38:31.891Z,9.46
2022-11-14T19:41:29.432Z,9.42
2022-11-14T19:44:17.042Z,9.50
2022-11-14T19:47:12.250Z,9.52
2022-11-14T19:49:59.664Z,9.47
2022-11-14T19:52:46.874Z,9.44
2022-11-14T19:55:36.496Z,9.37
2022-11-14T19:58:25.984Z,9.48
2022-11-14T20:01:20.950Z,9.58
2022-11-14T20:04:10.337Z,9.53
2022-11-14T20:07:05.255Z,9.57
2022-11-14T20:09:53.042Z,9.58
2022-11-14T20:15:42.444Z,9.55
2022-11-14T20:18:40.571Z,9.06
2022-11-14T20:21:32.472Z,9.37
2022-11-14T20:24:26.505Z,9.24
2022-11-14T20:27:22.393Z,9.31
2022-11-14T20:30:21.132Z,9.36
2022-11-14T20:33:09.501Z,9.40
2022-11-14T20:36:08.739Z,9.46
2022-11-14T20:38:59.736Z,9.42
2022-11-14T20:41:55.995Z,9.40
2022-11-14T20:44:45.168Z,9.34
2022-11-14T20:47:37.791Z,9.44
2022-11-14T20:50:27.508Z,9.48
2022-11-14T20:53:13.734Z,9.49
2022-11-14T20:56:15.173Z,9.44
2022-11-14T20:59:04.477Z,9.37
2022-11-14T21:01:53.622Z,9.57
2022-11-14T21:04:45.090Z,9.49
2022-11-14T21:07:37.851Z,9.49
2022-11-14T21:10:43.356Z,9.52
2022-11-14T21:13:51.363Z,9.59
2022-11-14T21:16:40.115Z,9.49
2022-11-14T21:19:29.468Z,9.50
2022-11-14T21:22:25.389Z,9.54
2022-11-14T21:25:15.385Z,9.47
2022-11-14T21:28:09.410Z,9.47
2022-11-14T21:30:56.021Z,9.43
2022-11-14T21:33:45.458Z,9.47
2022-11-14T21:36:45.007Z,9.41
2022-11-14T21:39:35.313Z,9.47
2022-11-14T21:42:28.339Z,9.42
2022-11-14T21:45:18.094Z,9.40
2022-11-14T21:48:20.188Z,9.53
2022-11-14T21:51:17.787Z,9.53
2022-11-14T21:54:07.223Z,9.47
2022-11-14T21:56:56.427Z,9.57
2022-11-14T21:59:52.284Z,9.57
2022-11-14T22:03:00.676Z,9.41
2022-11-14T22:05:52.865Z,9.43
2022-11-14T22:08:43.775Z,9.56
2022-11-14T22:11:40.374Z,9.44
2022-11-14T22:14:30.424Z,9.37
2022-11-14T22:17:22.119Z,9.21
2022-11-14T22:20:10.807Z,9.40
2022-11-14T22:22:57.821Z,9.43
2022-11-14T22:25:47.357Z,9.32
2022-11-14T22:28:47.665Z,9.35
2022-11-14T22:31:40.459Z,9.44
2022-11-14T22:34:30.527Z,9.56
2022-11-14T22:37:25.418Z,9.52
2022-11-14T22:40:22.629Z,9.32
2022-11-14T22:43:12.040Z,9.34
2022-11-14T22:46:03.731Z,9.43
2022-11-14T22:48:56.001Z,9.43
2022-11-14T22:51:51.480Z,9.37
2022-11-14T22:54:41.460Z,9.33
2022-11-14T22:57:30.919Z,9.49
2022-11-14T23:00:20.661Z,9.55
2022-11-14T23:03:20.504Z,9.49
2022-11-14T23:06:19.277Z,9.61
2022-11-14T23:09:08.156Z,9.64
2022-11-14T23:11:59.710Z,9.51
2022-11-14T23:14:50.057Z,9.40
2022-11-14T23:17:39.060Z,9.38
2022-11-14T23:20:27.649Z,9.40
2022-11-14T23:23:25.036Z,9.49
2022-11-14T23:26:18.111Z,9.50
2022-11-14T23:29:10.214Z,9.41
2022-11-14T23:32:05.190Z,9.41
2022-11-14T23:35:09.779Z,9.46
2022-11-14T23:37:57.587Z,9.50
2022-11-14T23:40:52.348Z,9.49
2022-11-14T23:43:44.929Z,9.51
2022-11-14T23:46:48.160Z,9.58
2022-11-14T23:49:45.079Z,9.50
2022-11-14T23:52:34.885Z,9.48
2022-11-14T23:55:23.698Z,9.48
2022-11-14T23:58:12.826Z,9.54
